CDT,Max TemperatureF,Mean TemperatureF,Min TemperatureF,Max Dew PointF,MeanDew PointF,Min DewpointF,Max Humidity, Mean Humidity, Min Humidity, Max Sea Level PressureIn, Mean Sea Level PressureIn, Min Sea Level PressureIn, Max VisibilityMiles, Mean VisibilityMiles, Min VisibilityMiles, Max Wind SpeedMPH, Mean Wind SpeedMPH, Max Gust SpeedMPH,PrecipitationIn, CloudCover, Events, WindDirDegrees
2013-10-1,94,85,77,75,73,70,89,71,46,29.90,29.84,29.79,10,9,7,16,8,22,0.00,3,,158
2013-10-2,94,85,76,73,71,65,89,68,40,29.92,29.87,29.83,10,10,7,15,8,18,0.00,1,,149
2013-10-3,93,84,74,72,70,65,88,68,40,29.91,29.87,29.81,10,9,7,14,7,20,0.00,2,,149
2013-10-4,93,84,75,73,70,66,89,69,44,29.90,29.86,29.81,10,9,7,17,7,21,0.00,2,,148
2013-10-5,93,82,71,73,70,64,92,69,40,29.92,29.87,29.81,10,9,5,12,5,21,0.00,2,,147
2013-10-6,77,70,63,72,60,51,90,68,53,30.13,30.04,29.91,10,9,7,17,6,26,0.00,5,,333
2013-10-7,87,70,55,54,45,34,76,46,16,30.17,30.10,30.04,10,9,5,10,5,,0.00,0,,338
2013-10-8,87,72,56,60,52,47,80,53,25,30.09,30.03,29.96,10,9,5,9,2,,0.00,0,,128
2013-10-9,89,75,62,63,60,57,86,62,35,30.01,29.97,29.91,10,10,7,15,5,21,0.00,1,,149
2013-10-10,90,78,65,71,65,57,87,64,33,29.99,29.93,29.86,10,10,7,18,4,23,0.00,3,,142
2013-10-11,94,85,76,74,72,69,86,69,44,29.90,29.85,29.79,10,9,7,18,9,25,0.00,4,,148
2013-10-12,93,84,77,76,72,67,90,70,43,29.99,29.91,29.86,10,8,5,20,9,28,0.00,2,,148
2013-10-13,93,85,77,75,72,67,89,70,42,30.06,29.99,29.93,10,10,7,17,8,24,0.00,2,,139
2013-10-14,91,82,73,72,68,62,88,67,38,30.04,29.97,29.89,10,10,7,17,6,22,0.00,1,,145
2013-10-15,91,82,72,71,69,65,85,68,42,29.96,29.90,29.82,10,9,5,15,7,21,0.00,1,,146
2013-10-16,93,80,66,72,68,62,92,70,36,30.01,29.91,29.85,10,9,4,15,5,21,0.01,4,Rain,316
2013-10-17,68,66,63,62,61,60,91,83,76,30.08,30.01,29.96,10,7,2,13,8,12,0.01,8,Rain-Thunderstorm,334
2013-10-18,90,78,67,71,65,62,84,68,44,29.97,29.87,29.77,10,9,5,13,4,16,0.00,4,,197
2013-10-19,79,72,66,71,63,57,91,71,47,30.09,30.00,29.89,10,8,3,18,8,28,0.00,4,,19
2013-10-20,84,71,59,64,58,48,78,62,46,30.08,29.98,29.88,10,9,7,12,5,16,0.00,4,,68
2013-10-21,88,79,71,72,69,64,90,74,49,29.95,29.88,29.82,10,8,3,14,3,23,0.54,6,Rain,111
2013-10-22,80,73,64,68,63,57,92,76,50,30.12,30.04,29.95,10,8,4,13,6,21,0.00,4,Rain,353
2013-10-23,82,66,51,57,53,46,85,62,37,30.18,30.12,30.08,10,9,5,13,5,21,0.00,1,,17
2013-10-24,85,72,58,60,56,52,89,64,32,30.20,30.15,30.10,10,9,5,12,2,,0.00,1,,85
2013-10-25,88,74,61,64,60,57,87,65,36,30.24,30.18,30.14,10,9,7,15,4,24,0.00,1,,92
2013-10-26,88,78,68,64,62,58,84,62,37,30.17,30.10,30.04,10,9,5,15,4,21,0.00,3,,131
2013-10-27,88,76,64,67,64,60,92,70,40,30.08,30.02,29.95,10,8,4,12,2,16,0.00,2,,132
2013-10-28,90,79,68,70,67,64,89,70,44,30.04,29.99,29.93,10,9,7,18,6,28,0.00,2,,139
2013-10-29,90,82,74,72,69,65,86,67,45,30.05,29.99,29.93,10,9,7,20,11,25,0.00,2,,145
2013-10-30,90,83,77,73,72,68,86,72,51,29.98,29.90,29.79,10,9,7,25,12,36,0.00,5,,159
2013-10-31,90,84,77,75,72,68,89,71,49,29.87,29.83,29.78,10,9,4,20,11,26,0.05,3,Rain-Thunderstorm,196